TAP1212 LPPT-LPMA
Flight info
| Callsign | TAP1212 |
|---|---|
| Flight time | 1h 34m |
| Altitude | 39000 |
| Route | ULVOT DCT GALPA DCT RAKUN |
| Aircraft | A333/H-SDE3GHIJ2J3J5M1RVWXY/LB2D1 |
Departure
| Time | 2026-05-07 19:09 |
|---|---|
| Airport | Lisbon Humberto Delgado Airport (LPPT) |
Arrival
| Time | 2026-05-07 20:43 |
|---|---|
| Airport | Cristiano Ronaldo International Airport (LPMA) |
| Time | Latitude | Longitude | Altitude | Speed | Heading |
|---|---|---|---|---|---|
| 2026-05-07 18:53 | 38.77562 | -9.13316 | 353 ft | 0 kts | 167° |
| 2026-05-07 18:58 | 38.77560 | -9.13316 | 342 ft | 1 kts | 167° |
| 2026-05-07 18:59 | 38.77547 | -9.13312 | 351 ft | 4 kts | 167° |
| 2026-05-07 18:59 | 38.77505 | -9.13300 | 351 ft | 8 kts | 167° |
| 2026-05-07 18:59 | 38.77448 | -9.13284 | 344 ft | 9 kts | 167° |
| 2026-05-07 18:59 | 38.77381 | -9.13268 | 351 ft | 10 kts | 178° |
| 2026-05-07 19:00 | 38.77333 | -9.13311 | 357 ft | 8 kts | 240° |
| 2026-05-07 19:00 | 38.77319 | -9.13369 | 353 ft | 6 kts | 257° |
| 2026-05-07 19:00 | 38.77311 | -9.13409 | 349 ft | 4 kts | 257° |
| 2026-05-07 19:00 | 38.77308 | -9.13425 | 350 ft | 0 kts | 257° |
| 2026-05-07 19:01 | 38.77303 | -9.13447 | 359 ft | 7 kts | 249° |
| 2026-05-07 19:02 | 38.77256 | -9.13483 | 352 ft | 10 kts | 186° |
| 2026-05-07 19:02 | 38.77176 | -9.13467 | 354 ft | 13 kts | 170° |
| 2026-05-07 19:02 | 38.77086 | -9.13445 | 355 ft | 14 kts | 168° |
| 2026-05-07 19:02 | 38.76984 | -9.13418 | 357 ft | 16 kts | 168° |
| 2026-05-07 19:03 | 38.76867 | -9.13386 | 355 ft | 18 kts | 168° |
| 2026-05-07 19:03 | 38.76763 | -9.13376 | 357 ft | 7 kts | 211° |
| 2026-05-07 19:03 | 38.76718 | -9.13410 | 355 ft | 11 kts | 210° |
| 2026-05-07 19:03 | 38.76672 | -9.13453 | 357 ft | 12 kts | 228° |
| 2026-05-07 19:04 | 38.76642 | -9.13555 | 357 ft | 13 kts | 254° |
| 2026-05-07 19:04 | 38.76622 | -9.13665 | 355 ft | 13 kts | 260° |
| 2026-05-07 19:04 | 38.76605 | -9.13777 | 351 ft | 13 kts | 258° |
| 2026-05-07 19:04 | 38.76586 | -9.13898 | 354 ft | 14 kts | 259° |
| 2026-05-07 19:05 | 38.76565 | -9.14026 | 354 ft | 15 kts | 256° |
| 2026-05-07 19:05 | 38.76568 | -9.14162 | 351 ft | 14 kts | 288° |
| 2026-05-07 19:05 | 38.76594 | -9.14244 | 351 ft | 0 kts | 293° |
| 2026-05-07 19:06 | 38.76594 | -9.14245 | 351 ft | 1 kts | 293° |
| 2026-05-07 19:07 | 38.76604 | -9.14274 | 352 ft | 7 kts | 293° |
| 2026-05-07 19:07 | 38.76650 | -9.14357 | 338 ft | 12 kts | 337° |
| 2026-05-07 19:07 | 38.76710 | -9.14352 | 350 ft | 0 kts | 19° |
| 2026-05-07 19:08 | 38.76739 | -9.14339 | 348 ft | 20 kts | 20° |
| 2026-05-07 19:08 | 38.77075 | -9.14160 | 361 ft | 83 kts | 22° |
| 2026-05-07 19:08 | 38.77775 | -9.13785 | 372 ft | 137 kts | 22° |
| 2026-05-07 19:08 | 38.78810 | -9.13223 | 514 ft | 178 kts | 18° |
| 2026-05-07 19:09 | 38.79996 | -9.12524 | 1186 ft | 190 kts | 25° |
| 2026-05-07 19:09 | 38.81090 | -9.11653 | 2348 ft | 182 kts | 28° |
| 2026-05-07 19:09 | 38.82207 | -9.10762 | 2917 ft | 200 kts | 27° |
| 2026-05-07 19:09 | 38.83474 | -9.09815 | 3249 ft | 227 kts | 26° |
| 2026-05-07 19:10 | 38.84924 | -9.08777 | 3644 ft | 247 kts | 26° |
| 2026-05-07 19:10 | 38.86469 | -9.07613 | 4049 ft | 267 kts | 33° |
| 2026-05-07 19:10 | 38.87739 | -9.05808 | 4748 ft | 279 kts | 63° |
| 2026-05-07 19:10 | 38.88171 | -9.03417 | 5631 ft | 277 kts | 94° |
| 2026-05-07 19:11 | 38.87970 | -9.00969 | 6600 ft | 273 kts | 105° |
| 2026-05-07 19:11 | 38.87331 | -8.98708 | 7497 ft | 268 kts | 125° |
| 2026-05-07 19:11 | 38.86065 | -8.97043 | 8357 ft | 264 kts | 152° |
| 2026-05-07 19:11 | 38.84329 | -8.96367 | 9221 ft | 264 kts | 179° |
| 2026-05-07 19:12 | 38.82538 | -8.96880 | 10040 ft | 269 kts | 205° |
| 2026-05-07 19:12 | 38.80884 | -8.98163 | 10483 ft | 289 kts | 212° |
| 2026-05-07 19:12 | 38.79177 | -8.99696 | 10755 ft | 310 kts | 213° |
| 2026-05-07 19:12 | 38.77377 | -9.01321 | 11304 ft | 321 kts | 213° |
| 2026-05-07 19:13 | 38.75530 | -9.02964 | 12083 ft | 324 kts | 213° |
| 2026-05-07 19:13 | 38.73663 | -9.04605 | 12890 ft | 327 kts | 213° |
| 2026-05-07 19:13 | 38.71771 | -9.06254 | 13704 ft | 331 kts | 212° |
| 2026-05-07 19:13 | 38.69855 | -9.07916 | 14394 ft | 334 kts | 213° |
| 2026-05-07 19:14 | 38.67943 | -9.09569 | 15112 ft | 337 kts | 213° |
| 2026-05-07 19:14 | 38.65996 | -9.11251 | 15911 ft | 338 kts | 213° |
| 2026-05-07 19:14 | 38.64036 | -9.12941 | 16645 ft | 340 kts | 213° |
| 2026-05-07 19:14 | 38.62062 | -9.14641 | 17362 ft | 343 kts | 213° |
| 2026-05-07 19:15 | 38.60070 | -9.16356 | 18059 ft | 346 kts | 214° |
| 2026-05-07 19:15 | 38.58057 | -9.18088 | 18688 ft | 349 kts | 214° |
| 2026-05-07 19:15 | 38.56056 | -9.19807 | 19223 ft | 353 kts | 214° |
| 2026-05-07 19:15 | 38.54008 | -9.21566 | 19796 ft | 356 kts | 214° |
| 2026-05-07 19:16 | 38.51938 | -9.23342 | 20369 ft | 359 kts | 214° |
| 2026-05-07 19:16 | 38.49855 | -9.25128 | 20952 ft | 361 kts | 214° |
| 2026-05-07 19:16 | 38.47755 | -9.26928 | 21498 ft | 365 kts | 214° |
| 2026-05-07 19:16 | 38.45634 | -9.28744 | 22035 ft | 368 kts | 214° |
| 2026-05-07 19:17 | 38.43496 | -9.30573 | 22573 ft | 371 kts | 214° |
| 2026-05-07 19:17 | 38.41340 | -9.32417 | 23073 ft | 375 kts | 214° |
| 2026-05-07 19:17 | 38.39165 | -9.34275 | 23587 ft | 377 kts | 214° |
| 2026-05-07 19:17 | 38.36974 | -9.36145 | 24014 ft | 380 kts | 214° |
| 2026-05-07 19:18 | 38.34767 | -9.38028 | 24445 ft | 382 kts | 214° |
| 2026-05-07 19:18 | 38.32581 | -9.39892 | 24901 ft | 384 kts | 214° |
| 2026-05-07 19:18 | 38.30349 | -9.41793 | 25331 ft | 386 kts | 214° |
| 2026-05-07 19:18 | 38.28107 | -9.43701 | 25762 ft | 388 kts | 214° |
| 2026-05-07 19:19 | 38.25858 | -9.45614 | 26205 ft | 389 kts | 214° |
| 2026-05-07 19:19 | 38.23598 | -9.47536 | 26685 ft | 390 kts | 214° |
| 2026-05-07 19:19 | 38.21359 | -9.49437 | 27087 ft | 393 kts | 214° |
| 2026-05-07 19:19 | 38.19075 | -9.51376 | 27493 ft | 395 kts | 214° |
| 2026-05-07 19:20 | 38.16783 | -9.53319 | 27904 ft | 397 kts | 214° |
| 2026-05-07 19:20 | 38.14477 | -9.55272 | 28314 ft | 399 kts | 214° |
| 2026-05-07 19:20 | 38.12155 | -9.57238 | 28722 ft | 401 kts | 214° |
| 2026-05-07 19:20 | 38.09830 | -9.59206 | 29136 ft | 403 kts | 214° |
| 2026-05-07 19:21 | 38.07489 | -9.61184 | 29536 ft | 405 kts | 214° |
| 2026-05-07 19:21 | 38.05166 | -9.63147 | 29917 ft | 407 kts | 214° |
| 2026-05-07 19:21 | 38.02805 | -9.65139 | 30274 ft | 409 kts | 214° |
| 2026-05-07 19:21 | 38.00433 | -9.67140 | 30650 ft | 409 kts | 214° |
| 2026-05-07 19:22 | 37.98056 | -9.69143 | 31056 ft | 409 kts | 214° |
| 2026-05-07 19:22 | 37.95681 | -9.71143 | 31453 ft | 409 kts | 214° |
| 2026-05-07 19:22 | 37.93306 | -9.73141 | 31835 ft | 410 kts | 214° |
| 2026-05-07 19:22 | 37.90932 | -9.75137 | 32234 ft | 409 kts | 214° |
| 2026-05-07 19:23 | 37.88567 | -9.77123 | 32781 ft | 405 kts | 215° |
| 2026-05-07 19:23 | 37.86246 | -9.79071 | 33396 ft | 400 kts | 215° |
| 2026-05-07 19:23 | 37.83936 | -9.81008 | 34001 ft | 395 kts | 215° |
| 2026-05-07 19:23 | 37.81658 | -9.82916 | 34428 ft | 392 kts | 215° |
| 2026-05-07 19:24 | 37.79381 | -9.84824 | 34759 ft | 392 kts | 214° |
| 2026-05-07 19:24 | 37.77103 | -9.86731 | 35029 ft | 393 kts | 214° |
| 2026-05-07 19:24 | 37.74831 | -9.88632 | 35463 ft | 389 kts | 214° |
| 2026-05-07 19:24 | 37.72607 | -9.90489 | 35827 ft | 387 kts | 214° |
| 2026-05-07 19:25 | 37.70357 | -9.92369 | 36120 ft | 387 kts | 214° |
| 2026-05-07 19:25 | 37.68109 | -9.94245 | 36407 ft | 387 kts | 214° |
| 2026-05-07 19:25 | 37.65857 | -9.96123 | 36704 ft | 386 kts | 214° |
| 2026-05-07 19:25 | 37.63662 | -9.98075 | 37018 ft | 385 kts | 219° |
| 2026-05-07 19:26 | 37.61676 | -10.00331 | 37294 ft | 385 kts | 226° |
| 2026-05-07 19:26 | 37.59901 | -10.02861 | 37585 ft | 385 kts | 229° |
| 2026-05-07 19:26 | 37.58200 | -10.05466 | 37879 ft | 384 kts | 230° |
| 2026-05-07 19:26 | 37.56562 | -10.08062 | 38171 ft | 383 kts | 230° |
| 2026-05-07 19:27 | 37.54908 | -10.10714 | 38425 ft | 383 kts | 230° |
| 2026-05-07 19:27 | 37.53263 | -10.13349 | 38689 ft | 382 kts | 230° |
| 2026-05-07 19:27 | 37.51614 | -10.15976 | 38885 ft | 382 kts | 230° |
| 2026-05-07 19:27 | 37.49954 | -10.18604 | 38931 ft | 383 kts | 230° |
| 2026-05-07 19:28 | 37.46620 | -10.23845 | 38953 ft | 383 kts | 229° |
| 2026-05-07 19:28 | 37.43279 | -10.29071 | 38953 ft | 383 kts | 229° |
| 2026-05-07 19:29 | 37.39955 | -10.34261 | 38951 ft | 383 kts | 229° |
| 2026-05-07 19:29 | 37.36613 | -10.39473 | 38953 ft | 383 kts | 229° |
| 2026-05-07 19:30 | 37.33262 | -10.44693 | 38954 ft | 383 kts | 229° |
| 2026-05-07 19:30 | 37.29918 | -10.49894 | 38956 ft | 383 kts | 229° |
| 2026-05-07 19:31 | 37.26565 | -10.55099 | 38954 ft | 383 kts | 229° |
| 2026-05-07 19:31 | 37.23210 | -10.60302 | 38951 ft | 384 kts | 229° |
| 2026-05-07 19:32 | 37.19858 | -10.65490 | 38952 ft | 385 kts | 229° |
| 2026-05-07 19:32 | 37.16482 | -10.70707 | 38953 ft | 385 kts | 229° |
| 2026-05-07 19:33 | 37.13106 | -10.75916 | 38953 ft | 385 kts | 229° |
| 2026-05-07 19:33 | 37.09721 | -10.81133 | 38953 ft | 385 kts | 229° |
| 2026-05-07 19:34 | 37.06358 | -10.86305 | 38951 ft | 385 kts | 229° |
| 2026-05-07 19:34 | 37.02970 | -10.91507 | 38953 ft | 385 kts | 229° |
| 2026-05-07 19:35 | 36.99583 | -10.96703 | 38958 ft | 386 kts | 228° |
| 2026-05-07 19:35 | 36.96173 | -11.01923 | 38946 ft | 387 kts | 229° |
| 2026-05-07 19:36 | 36.92782 | -11.07106 | 38952 ft | 387 kts | 229° |
| 2026-05-07 19:36 | 36.89362 | -11.12326 | 38949 ft | 387 kts | 229° |
| 2026-05-07 19:37 | 36.85942 | -11.17538 | 38952 ft | 387 kts | 228° |
| 2026-05-07 19:37 | 36.82520 | -11.22745 | 38951 ft | 387 kts | 228° |
| 2026-05-07 19:38 | 36.79100 | -11.27940 | 38950 ft | 387 kts | 228° |
| 2026-05-07 19:38 | 36.75688 | -11.33114 | 38964 ft | 388 kts | 228° |
| 2026-05-07 19:39 | 36.72245 | -11.38329 | 38955 ft | 390 kts | 228° |
| 2026-05-07 19:39 | 36.68811 | -11.43521 | 38951 ft | 390 kts | 228° |
| 2026-05-07 19:40 | 36.65360 | -11.48732 | 38952 ft | 390 kts | 228° |
| 2026-05-07 19:40 | 36.61909 | -11.53934 | 38952 ft | 390 kts | 228° |
| 2026-05-07 19:41 | 36.58451 | -11.59139 | 38951 ft | 390 kts | 228° |
| 2026-05-07 19:41 | 36.54986 | -11.64345 | 38954 ft | 390 kts | 228° |
| 2026-05-07 19:42 | 36.51546 | -11.69506 | 38950 ft | 390 kts | 228° |
| 2026-05-07 19:42 | 36.48078 | -11.74703 | 38950 ft | 390 kts | 228° |
| 2026-05-07 19:43 | 36.44609 | -11.79891 | 38950 ft | 390 kts | 228° |
| 2026-05-07 19:43 | 36.41140 | -11.85072 | 38954 ft | 390 kts | 228° |
| 2026-05-07 19:44 | 36.37694 | -11.90211 | 38946 ft | 389 kts | 228° |
| 2026-05-07 19:44 | 36.34226 | -11.95375 | 38955 ft | 388 kts | 228° |
| 2026-05-07 19:45 | 36.30768 | -12.00516 | 38955 ft | 388 kts | 228° |
| 2026-05-07 19:45 | 36.27304 | -12.05658 | 38972 ft | 389 kts | 229° |
| 2026-05-07 19:46 | 36.23812 | -12.10831 | 38953 ft | 392 kts | 229° |
| 2026-05-07 19:46 | 36.20320 | -12.16000 | 38951 ft | 393 kts | 229° |
| 2026-05-07 19:47 | 36.16806 | -12.21192 | 38954 ft | 393 kts | 229° |
| 2026-05-07 19:47 | 36.13293 | -12.26375 | 38957 ft | 393 kts | 229° |
| 2026-05-07 19:48 | 36.09775 | -12.31557 | 38948 ft | 393 kts | 229° |
| 2026-05-07 19:48 | 36.06260 | -12.36728 | 38954 ft | 392 kts | 229° |
| 2026-05-07 19:49 | 36.02769 | -12.41854 | 38973 ft | 392 kts | 229° |
| 2026-05-07 19:49 | 35.99246 | -12.47020 | 38963 ft | 395 kts | 229° |
| 2026-05-07 19:50 | 35.95685 | -12.52233 | 38949 ft | 396 kts | 229° |
| 2026-05-07 19:50 | 35.92132 | -12.57427 | 38955 ft | 396 kts | 229° |
| 2026-05-07 19:51 | 35.88575 | -12.62620 | 38958 ft | 396 kts | 229° |
| 2026-05-07 19:51 | 35.85017 | -12.67805 | 38954 ft | 396 kts | 229° |
| 2026-05-07 19:52 | 35.81470 | -12.72967 | 38960 ft | 396 kts | 229° |
| 2026-05-07 19:52 | 35.77912 | -12.78137 | 38969 ft | 395 kts | 229° |
| 2026-05-07 19:53 | 35.74334 | -12.83328 | 38958 ft | 399 kts | 229° |
| 2026-05-07 19:53 | 35.70750 | -12.88519 | 38970 ft | 400 kts | 229° |
| 2026-05-07 19:54 | 35.67732 | -12.92885 | 38964 ft | 400 kts | 229° |
| 2026-05-07 19:54 | 35.64146 | -12.98065 | 38956 ft | 400 kts | 229° |
| 2026-05-07 19:55 | 35.60529 | -13.03282 | 38978 ft | 400 kts | 229° |
| 2026-05-07 19:55 | 35.56915 | -13.08487 | 38959 ft | 400 kts | 229° |
| 2026-05-07 19:56 | 35.53298 | -13.13688 | 38979 ft | 400 kts | 230° |
| 2026-05-07 19:56 | 35.49693 | -13.18864 | 38966 ft | 401 kts | 229° |
| 2026-05-07 19:57 | 35.46060 | -13.24072 | 38961 ft | 402 kts | 229° |
| 2026-05-07 19:57 | 35.42424 | -13.29277 | 38968 ft | 402 kts | 229° |
| 2026-05-07 19:58 | 35.38772 | -13.34496 | 38960 ft | 402 kts | 229° |
| 2026-05-07 19:58 | 35.35159 | -13.39653 | 38961 ft | 402 kts | 229° |
| 2026-05-07 19:59 | 35.31508 | -13.44854 | 38961 ft | 402 kts | 229° |
| 2026-05-07 19:59 | 35.27857 | -13.50049 | 38971 ft | 402 kts | 230° |
| 2026-05-07 20:00 | 35.24212 | -13.55224 | 38963 ft | 403 kts | 230° |
| 2026-05-07 20:00 | 35.20537 | -13.60437 | 38963 ft | 404 kts | 230° |
| 2026-05-07 20:01 | 35.16860 | -13.65647 | 38957 ft | 404 kts | 230° |
| 2026-05-07 20:01 | 35.13208 | -13.70814 | 38957 ft | 404 kts | 230° |
| 2026-05-07 20:02 | 35.09528 | -13.76010 | 38957 ft | 404 kts | 230° |
| 2026-05-07 20:02 | 35.05848 | -13.81198 | 38957 ft | 404 kts | 230° |
| 2026-05-07 20:03 | 35.02163 | -13.86386 | 38976 ft | 404 kts | 230° |
| 2026-05-07 20:03 | 34.98462 | -13.91589 | 38958 ft | 407 kts | 230° |
| 2026-05-07 20:04 | 34.94757 | -13.96790 | 38955 ft | 408 kts | 230° |
| 2026-05-07 20:04 | 34.91034 | -14.02007 | 38957 ft | 406 kts | 230° |
| 2026-05-07 20:05 | 34.87351 | -14.07161 | 38958 ft | 404 kts | 230° |
| 2026-05-07 20:05 | 34.83650 | -14.12333 | 38958 ft | 404 kts | 230° |
| 2026-05-07 20:06 | 34.79935 | -14.17517 | 38963 ft | 405 kts | 230° |
| 2026-05-07 20:06 | 34.76248 | -14.22654 | 38776 ft | 406 kts | 230° |
| 2026-05-07 20:07 | 34.74387 | -14.25244 | 38535 ft | 407 kts | 230° |
| 2026-05-07 20:07 | 34.72519 | -14.27842 | 38259 ft | 408 kts | 230° |
| 2026-05-07 20:07 | 34.70648 | -14.30442 | 37991 ft | 409 kts | 230° |
| 2026-05-07 20:07 | 34.68772 | -14.33047 | 37720 ft | 409 kts | 230° |
| 2026-05-07 20:08 | 34.66894 | -14.35653 | 37445 ft | 410 kts | 230° |
| 2026-05-07 20:08 | 34.65017 | -14.38255 | 37190 ft | 410 kts | 230° |
| 2026-05-07 20:08 | 34.63138 | -14.40858 | 36891 ft | 410 kts | 230° |
| 2026-05-07 20:08 | 34.61262 | -14.43454 | 36646 ft | 408 kts | 230° |
| 2026-05-07 20:09 | 34.59388 | -14.46047 | 36393 ft | 408 kts | 230° |
| 2026-05-07 20:09 | 34.57532 | -14.48613 | 36156 ft | 409 kts | 230° |
| 2026-05-07 20:09 | 34.55654 | -14.51206 | 35898 ft | 409 kts | 230° |
| 2026-05-07 20:10 | 34.51880 | -14.56414 | 35412 ft | 410 kts | 230° |
| 2026-05-07 20:10 | 34.49994 | -14.59013 | 35177 ft | 412 kts | 231° |
| 2026-05-07 20:10 | 34.48098 | -14.61624 | 34942 ft | 414 kts | 231° |
| 2026-05-07 20:10 | 34.46211 | -14.64221 | 34700 ft | 416 kts | 231° |
| 2026-05-07 20:11 | 34.44297 | -14.66854 | 34483 ft | 416 kts | 231° |
| 2026-05-07 20:11 | 34.42379 | -14.69489 | 34243 ft | 416 kts | 231° |
| 2026-05-07 20:11 | 34.40456 | -14.72127 | 34005 ft | 417 kts | 231° |
| 2026-05-07 20:11 | 34.38475 | -14.74722 | 33752 ft | 418 kts | 230° |
| 2026-05-07 20:12 | 34.36491 | -14.77242 | 33501 ft | 419 kts | 229° |
| 2026-05-07 20:12 | 34.34471 | -14.79795 | 33225 ft | 421 kts | 230° |
| 2026-05-07 20:12 | 34.32436 | -14.82365 | 32926 ft | 422 kts | 230° |
| 2026-05-07 20:12 | 34.30406 | -14.84931 | 32668 ft | 422 kts | 230° |
| 2026-05-07 20:13 | 34.28380 | -14.87488 | 32262 ft | 418 kts | 230° |
| 2026-05-07 20:13 | 34.26372 | -14.90022 | 31692 ft | 416 kts | 230° |
| 2026-05-07 20:13 | 34.24373 | -14.92544 | 31195 ft | 414 kts | 231° |
| 2026-05-07 20:13 | 34.22394 | -14.95035 | 30823 ft | 408 kts | 232° |
| 2026-05-07 20:14 | 34.20462 | -14.97469 | 30460 ft | 403 kts | 232° |
| 2026-05-07 20:14 | 34.18533 | -14.99897 | 30058 ft | 399 kts | 233° |
| 2026-05-07 20:14 | 34.16612 | -15.02316 | 29632 ft | 397 kts | 233° |
| 2026-05-07 20:14 | 34.14700 | -15.04723 | 29232 ft | 395 kts | 233° |
| 2026-05-07 20:15 | 34.12821 | -15.07085 | 28854 ft | 393 kts | 233° |
| 2026-05-07 20:15 | 34.10933 | -15.09457 | 28465 ft | 390 kts | 233° |
| 2026-05-07 20:15 | 34.09059 | -15.11809 | 28073 ft | 387 kts | 233° |
| 2026-05-07 20:15 | 34.07200 | -15.14140 | 27687 ft | 384 kts | 233° |
| 2026-05-07 20:16 | 34.05350 | -15.16459 | 27298 ft | 381 kts | 233° |
| 2026-05-07 20:16 | 34.03541 | -15.18725 | 26894 ft | 378 kts | 233° |
| 2026-05-07 20:16 | 34.01717 | -15.21008 | 26560 ft | 375 kts | 233° |
| 2026-05-07 20:16 | 33.99915 | -15.23263 | 26167 ft | 373 kts | 233° |
| 2026-05-07 20:17 | 33.98117 | -15.25511 | 25790 ft | 370 kts | 233° |
| 2026-05-07 20:17 | 33.96335 | -15.27737 | 25402 ft | 367 kts | 233° |
| 2026-05-07 20:17 | 33.94564 | -15.29949 | 25038 ft | 365 kts | 233° |
| 2026-05-07 20:17 | 33.92806 | -15.32142 | 24666 ft | 362 kts | 233° |
| 2026-05-07 20:18 | 33.91057 | -15.34322 | 24296 ft | 360 kts | 233° |
| 2026-05-07 20:18 | 33.89348 | -15.36452 | 23924 ft | 357 kts | 233° |
| 2026-05-07 20:18 | 33.87624 | -15.38600 | 23546 ft | 355 kts | 233° |
| 2026-05-07 20:18 | 33.85911 | -15.40732 | 23146 ft | 352 kts | 233° |
| 2026-05-07 20:19 | 33.84212 | -15.42846 | 22783 ft | 350 kts | 233° |
| 2026-05-07 20:19 | 33.82524 | -15.44945 | 22428 ft | 348 kts | 233° |
| 2026-05-07 20:19 | 33.80838 | -15.47040 | 22065 ft | 347 kts | 233° |
| 2026-05-07 20:19 | 33.79163 | -15.49120 | 21719 ft | 345 kts | 232° |
| 2026-05-07 20:20 | 33.77496 | -15.51188 | 21341 ft | 344 kts | 232° |
| 2026-05-07 20:20 | 33.75835 | -15.53248 | 21008 ft | 342 kts | 232° |
| 2026-05-07 20:20 | 33.74203 | -15.55272 | 20660 ft | 340 kts | 232° |
| 2026-05-07 20:20 | 33.72554 | -15.57313 | 20304 ft | 338 kts | 233° |
| 2026-05-07 20:21 | 33.70916 | -15.59342 | 19961 ft | 337 kts | 232° |
| 2026-05-07 20:21 | 33.69286 | -15.61359 | 19615 ft | 335 kts | 232° |
| 2026-05-07 20:21 | 33.67662 | -15.63367 | 19268 ft | 334 kts | 232° |
| 2026-05-07 20:21 | 33.66067 | -15.65337 | 18924 ft | 332 kts | 233° |
| 2026-05-07 20:22 | 33.64467 | -15.67312 | 18588 ft | 329 kts | 233° |
| 2026-05-07 20:22 | 33.62878 | -15.69273 | 18243 ft | 327 kts | 233° |
| 2026-05-07 20:22 | 33.61297 | -15.71225 | 17881 ft | 325 kts | 233° |
| 2026-05-07 20:22 | 33.59725 | -15.73164 | 17545 ft | 324 kts | 232° |
| 2026-05-07 20:23 | 33.58156 | -15.75099 | 17208 ft | 323 kts | 232° |
| 2026-05-07 20:23 | 33.56591 | -15.77027 | 16857 ft | 321 kts | 232° |
| 2026-05-07 20:23 | 33.55016 | -15.78925 | 16521 ft | 321 kts | 231° |
| 2026-05-07 20:23 | 33.53427 | -15.80799 | 16182 ft | 320 kts | 231° |
| 2026-05-07 20:24 | 33.51858 | -15.82638 | 15838 ft | 319 kts | 230° |
| 2026-05-07 20:24 | 33.50273 | -15.84496 | 15497 ft | 317 kts | 230° |
| 2026-05-07 20:24 | 33.48697 | -15.86344 | 15156 ft | 316 kts | 230° |
| 2026-05-07 20:24 | 33.47125 | -15.88185 | 14814 ft | 315 kts | 230° |
| 2026-05-07 20:25 | 33.45556 | -15.90023 | 14466 ft | 314 kts | 230° |
| 2026-05-07 20:25 | 33.43994 | -15.91850 | 14137 ft | 313 kts | 229° |
| 2026-05-07 20:25 | 33.42436 | -15.93673 | 13794 ft | 313 kts | 230° |
| 2026-05-07 20:25 | 33.40876 | -15.95496 | 13433 ft | 312 kts | 229° |
| 2026-05-07 20:26 | 33.39339 | -15.97292 | 13102 ft | 311 kts | 229° |
| 2026-05-07 20:26 | 33.37795 | -15.99095 | 12760 ft | 309 kts | 229° |
| 2026-05-07 20:26 | 33.36253 | -16.00895 | 12417 ft | 308 kts | 229° |
| 2026-05-07 20:26 | 33.34722 | -16.02681 | 12077 ft | 307 kts | 229° |
| 2026-05-07 20:27 | 33.33197 | -16.04459 | 11757 ft | 305 kts | 229° |
| 2026-05-07 20:27 | 33.31678 | -16.06230 | 11426 ft | 304 kts | 229° |
| 2026-05-07 20:27 | 33.30164 | -16.07994 | 11103 ft | 303 kts | 229° |
| 2026-05-07 20:27 | 33.28659 | -16.09746 | 10761 ft | 301 kts | 229° |
| 2026-05-07 20:28 | 33.27179 | -16.11469 | 10469 ft | 300 kts | 229° |
| 2026-05-07 20:28 | 33.25714 | -16.13169 | 10363 ft | 286 kts | 229° |
| 2026-05-07 20:28 | 33.24316 | -16.14789 | 10254 ft | 274 kts | 229° |
| 2026-05-07 20:28 | 33.22966 | -16.16356 | 10135 ft | 266 kts | 229° |
| 2026-05-07 20:29 | 33.21656 | -16.17877 | 10006 ft | 258 kts | 229° |
| 2026-05-07 20:29 | 33.20382 | -16.19357 | 9842 ft | 254 kts | 229° |
| 2026-05-07 20:29 | 33.19113 | -16.20834 | 9549 ft | 254 kts | 229° |
| 2026-05-07 20:29 | 33.17847 | -16.22306 | 9307 ft | 253 kts | 229° |
| 2026-05-07 20:30 | 33.16584 | -16.23773 | 9076 ft | 253 kts | 229° |
| 2026-05-07 20:30 | 33.15342 | -16.25213 | 8845 ft | 251 kts | 228° |
| 2026-05-07 20:30 | 33.14090 | -16.26664 | 8590 ft | 250 kts | 228° |
| 2026-05-07 20:30 | 33.12840 | -16.28112 | 8346 ft | 250 kts | 228° |
| 2026-05-07 20:31 | 33.11595 | -16.29554 | 8104 ft | 249 kts | 228° |
| 2026-05-07 20:31 | 33.10353 | -16.30991 | 7870 ft | 248 kts | 228° |
| 2026-05-07 20:31 | 33.09111 | -16.32427 | 7634 ft | 248 kts | 228° |
| 2026-05-07 20:31 | 33.07871 | -16.33860 | 7397 ft | 246 kts | 227° |
| 2026-05-07 20:32 | 33.06641 | -16.35280 | 7150 ft | 245 kts | 228° |
| 2026-05-07 20:32 | 33.05420 | -16.36691 | 6925 ft | 244 kts | 228° |
| 2026-05-07 20:32 | 33.04219 | -16.38080 | 6682 ft | 243 kts | 228° |
| 2026-05-07 20:32 | 33.03008 | -16.39478 | 6449 ft | 242 kts | 227° |
| 2026-05-07 20:33 | 33.01800 | -16.40872 | 6206 ft | 241 kts | 227° |
| 2026-05-07 20:33 | 33.00595 | -16.42262 | 5971 ft | 240 kts | 227° |
| 2026-05-07 20:33 | 32.99395 | -16.43645 | 5728 ft | 239 kts | 227° |
| 2026-05-07 20:33 | 32.98201 | -16.45022 | 5504 ft | 238 kts | 227° |
| 2026-05-07 20:34 | 32.97019 | -16.46382 | 5290 ft | 236 kts | 227° |
| 2026-05-07 20:34 | 32.95837 | -16.47744 | 5035 ft | 237 kts | 227° |
| 2026-05-07 20:34 | 32.94656 | -16.49104 | 4837 ft | 232 kts | 226° |
| 2026-05-07 20:34 | 32.93539 | -16.50384 | 4675 ft | 219 kts | 226° |
| 2026-05-07 20:35 | 32.92446 | -16.51591 | 4565 ft | 208 kts | 225° |
| 2026-05-07 20:35 | 32.91403 | -16.52715 | 4457 ft | 196 kts | 225° |
| 2026-05-07 20:35 | 32.90419 | -16.53768 | 4356 ft | 184 kts | 225° |
| 2026-05-07 20:35 | 32.89503 | -16.54749 | 4235 ft | 175 kts | 225° |
| 2026-05-07 20:36 | 32.88606 | -16.55709 | 4028 ft | 172 kts | 225° |
| 2026-05-07 20:36 | 32.87737 | -16.56638 | 3908 ft | 163 kts | 225° |
| 2026-05-07 20:36 | 32.86912 | -16.57520 | 3761 ft | 156 kts | 225° |
| 2026-05-07 20:36 | 32.86104 | -16.58386 | 3519 ft | 155 kts | 225° |
| 2026-05-07 20:37 | 32.85329 | -16.59256 | 3278 ft | 155 kts | 226° |
| 2026-05-07 20:37 | 32.84549 | -16.60158 | 3015 ft | 156 kts | 226° |
| 2026-05-07 20:37 | 32.83770 | -16.61067 | 2774 ft | 156 kts | 225° |
| 2026-05-07 20:37 | 32.83001 | -16.61966 | 2566 ft | 152 kts | 225° |
| 2026-05-07 20:38 | 32.82283 | -16.62802 | 2470 ft | 136 kts | 228° |
| 2026-05-07 20:38 | 32.81620 | -16.63577 | 2332 ft | 133 kts | 229° |
| 2026-05-07 20:38 | 32.80958 | -16.64357 | 2142 ft | 135 kts | 229° |
| 2026-05-07 20:38 | 32.80294 | -16.65139 | 1956 ft | 135 kts | 229° |
| 2026-05-07 20:39 | 32.79625 | -16.65896 | 1794 ft | 127 kts | 225° |
| 2026-05-07 20:39 | 32.78995 | -16.66585 | 1708 ft | 121 kts | 227° |
| 2026-05-07 20:39 | 32.78369 | -16.67271 | 1639 ft | 123 kts | 228° |
| 2026-05-07 20:39 | 32.77750 | -16.67973 | 1639 ft | 124 kts | 228° |
| 2026-05-07 20:40 | 32.77144 | -16.68686 | 1648 ft | 123 kts | 228° |
| 2026-05-07 20:40 | 32.76537 | -16.69407 | 1627 ft | 123 kts | 228° |
| 2026-05-07 20:40 | 32.75929 | -16.70131 | 1485 ft | 124 kts | 230° |
| 2026-05-07 20:40 | 32.75310 | -16.70833 | 1335 ft | 125 kts | 227° |
| 2026-05-07 20:41 | 32.74700 | -16.71566 | 1165 ft | 125 kts | 229° |
| 2026-05-07 20:41 | 32.74104 | -16.72315 | 1040 ft | 125 kts | 230° |
| 2026-05-07 20:41 | 32.73499 | -16.73067 | 871 ft | 125 kts | 230° |
| 2026-05-07 20:41 | 32.72924 | -16.73805 | 755 ft | 122 kts | 226° |
| 2026-05-07 20:42 | 32.72308 | -16.74473 | 647 ft | 121 kts | 225° |
| 2026-05-07 20:42 | 32.71711 | -16.75190 | 474 ft | 121 kts | 227° |
| 2026-05-07 20:42 | 32.71108 | -16.75897 | 356 ft | 122 kts | 224° |
| 2026-05-07 20:42 | 32.70518 | -16.76589 | 208 ft | 118 kts | 225° |
| 2026-05-07 20:43 | 32.69991 | -16.77210 | 180 ft | 83 kts | 223° |
| 2026-05-07 20:43 | 32.69713 | -16.77533 | 180 ft | 37 kts | 223° |
| 2026-05-07 20:43 | 32.69533 | -16.77743 | 180 ft | 35 kts | 225° |
| 2026-05-07 20:43 | 32.69377 | -16.77926 | 180 ft | 19 kts | 225° |
| 2026-05-07 20:44 | 32.69322 | -16.77951 | 180 ft | 4 kts | 155° |
| 2026-05-07 20:44 | 32.69295 | -16.77894 | 180 ft | 10 kts | 91° |
| 2026-05-07 20:44 | 32.69334 | -16.77807 | 180 ft | 15 kts | 46° |
| 2026-05-07 20:44 | 32.69414 | -16.77706 | 180 ft | 18 kts | 47° |
| 2026-05-07 20:45 | 32.69473 | -16.77633 | 180 ft | 19 kts | 47° |
| 2026-05-07 20:45 | 32.69553 | -16.77531 | 180 ft | 1 kts | 47° |
| 2026-05-07 20:45 | 32.69565 | -16.77516 | 180 ft | 4 kts | 47° |
| 2026-05-07 20:45 | 32.69587 | -16.77487 | 180 ft | 4 kts | 52° |
| 2026-05-07 20:46 | 32.69587 | -16.77478 | 180 ft | 1 kts | 91° |
| 2026-05-07 20:46 | 32.69575 | -16.77438 | 180 ft | 8 kts | 119° |
| 2026-05-07 20:46 | 32.69550 | -16.77404 | 180 ft | 3 kts | 134° |
| 2026-05-07 20:46 | 32.69544 | -16.77396 | 180 ft | 2 kts | 134° |
| 2026-05-07 20:47 | 32.69539 | -16.77391 | 180 ft | 0 kts | 135° |